createdAt,value
2018-04-09T00:00:58.554Z,10.33
2018-04-09T00:03:25.997Z,9.47
2018-04-09T00:05:53.425Z,9.37
2018-04-09T00:08:21.641Z,10.30
2018-04-09T00:10:49.071Z,9.53
2018-04-09T00:13:16.508Z,9.37
2018-04-09T00:15:44.698Z,9.60
2018-04-09T00:18:12.148Z,9.05
2018-04-09T00:20:40.353Z,10.37
2018-04-09T00:23:07.788Z,10.53
2018-04-09T00:25:35.224Z,10.10
2018-04-09T00:28:03.444Z,9.67
2018-04-09T00:30:30.881Z,9.67
2018-04-09T00:32:58.333Z,9.87
2018-04-09T00:35:26.436Z,10.93
2018-04-09T00:37:53.863Z,10.00
2018-04-09T00:40:21.309Z,11.03
2018-04-09T00:42:49.741Z,10.33
2018-04-09T00:45:17.204Z,8.70
2018-04-09T00:47:44.625Z,10.07
2018-04-09T00:50:12.068Z,9.90
2018-04-09T00:52:39.500Z,9.10
2018-04-09T00:55:07.703Z,9.60
2018-04-09T00:57:35.897Z,9.70
2018-04-09T01:00:03.341Z,10.10
2018-04-09T01:02:30.774Z,10.13
2018-04-09T01:04:58.976Z,9.70
2018-04-09T01:07:26.418Z,9.80
2018-04-09T01:09:53.852Z,8.90
2018-04-09T01:12:22.051Z,9.43
2018-04-09T01:14:49.491Z,8.30
2018-04-09T01:17:17.691Z,9.40
2018-04-09T01:19:45.141Z,10.10
2018-04-09T01:22:12.578Z,9.20
2018-04-09T01:24:40.785Z,9.95
2018-04-09T01:27:08.217Z,9.60
2018-04-09T01:29:35.661Z,9.63
2018-04-09T01:32:03.860Z,8.93
2018-04-09T01:34:31.304Z,10.10
2018-04-09T01:36:59.493Z,9.13
2018-04-09T01:39:27.701Z,8.10
2018-04-09T01:41:55.150Z,9.10
2018-04-09T01:44:22.568Z,9.57
2018-04-09T01:46:50.011Z,7.70
2018-04-09T01:49:18.202Z,8.53
2018-04-09T01:51:45.636Z,8.90
2018-04-09T01:54:13.842Z,7.87
2018-04-09T01:56:41.290Z,8.93
2018-04-09T01:59:08.734Z,8.20
2018-04-09T02:01:36.933Z,9.60
2018-04-09T02:04:04.370Z,8.23
2018-04-09T02:06:32.566Z,8.57
2018-04-09T02:09:00.001Z,9.18
2018-04-09T02:11:28.205Z,9.10
2018-04-09T02:13:55.649Z,9.47
2018-04-09T02:16:23.080Z,9.17
2018-04-09T02:18:50.509Z,9.00
2018-04-09T02:21:17.951Z,8.73
2018-04-09T02:23:45.378Z,9.27
2018-04-09T02:26:12.822Z,9.00
2018-04-09T02:28:41.015Z,9.70
2018-04-09T02:31:08.474Z,9.18
2018-04-09T02:33:35.954Z,8.27
2018-04-09T02:36:03.394Z,9.70
2018-04-09T02:38:30.864Z,8.47
2018-04-09T02:40:58.404Z,9.37
2018-04-09T02:43:25.842Z,10.03
2018-04-09T02:45:54.050Z,9.33
2018-04-09T02:48:21.502Z,9.40
2018-04-09T02:50:48.930Z,10.00
2018-04-09T02:53:17.132Z,9.82
2018-04-09T02:55:45.481Z,9.53
2018-04-09T02:58:13.688Z,9.53
2018-04-09T03:00:41.129Z,9.77
2018-04-09T03:03:08.575Z,8.60
2018-04-09T03:05:35.993Z,9.17
2018-04-09T03:08:03.433Z,9.80
2018-04-09T03:10:30.869Z,9.90
2018-04-09T03:12:58.331Z,10.67
2018-04-09T03:15:25.745Z,10.25
2018-04-09T03:17:53.945Z,9.13
2018-04-09T03:20:21.388Z,10.07
2018-04-09T03:22:49.587Z,9.77
2018-04-09T03:25:19.400Z,10.10
2018-04-09T03:27:46.842Z,9.47
2018-04-09T03:30:14.282Z,8.83
2018-04-09T03:32:42.485Z,10.33
2018-04-09T03:35:10.003Z,9.60
2018-04-09T03:37:38.225Z,10.20
2018-04-09T03:40:05.671Z,10.03
2018-04-09T03:42:33.104Z,9.90
2018-04-09T03:45:01.298Z,9.43
2018-04-09T03:47:28.740Z,10.60
2018-04-09T03:49:56.951Z,10.17
2018-04-09T03:52:24.388Z,9.90
2018-04-09T03:54:51.823Z,10.10
2018-04-09T03:57:20.033Z,10.20
2018-04-09T03:59:47.472Z,10.48
2018-04-09T04:02:14.914Z,10.93
2018-04-09T04:04:43.144Z,10.00
2018-04-09T04:07:10.578Z,10.33
2018-04-09T04:09:38.010Z,9.97
2018-04-09T04:12:05.448Z,9.13
2018-04-09T04:14:33.669Z,10.90
2018-04-09T04:17:12.916Z,9.70
2018-04-09T04:33:12.400Z,9.40
2018-04-09T04:35:39.823Z,10.93
2018-04-09T04:38:08.029Z,10.60
2018-04-09T04:40:35.462Z,10.87
2018-04-09T04:43:03.648Z,11.23
2018-04-09T04:45:31.094Z,11.40
2018-04-09T04:47:58.529Z,12.05
2018-04-09T04:50:25.968Z,11.50
2018-04-09T04:52:54.910Z,11.87
2018-04-09T04:55:22.343Z,11.57
2018-04-09T04:57:50.550Z,11.33
2018-04-09T05:00:18.022Z,11.30
2018-04-09T05:02:45.453Z,10.80
2018-04-09T05:05:13.142Z,11.57
2018-04-09T05:07:40.585Z,11.43
2018-04-09T05:10:08.117Z,10.35
2018-04-09T05:12:36.324Z,10.10
2018-04-09T05:15:03.762Z,11.33
2018-04-09T05:17:35.332Z,13.40
2018-04-09T05:20:03.603Z,12.20
2018-04-09T05:22:31.033Z,14.10
2018-04-09T05:24:59.241Z,14.07
2018-04-09T05:27:26.676Z,14.60
2018-04-09T05:29:54.125Z,14.57
2018-04-09T05:32:21.578Z,11.52
2018-04-09T05:34:49.777Z,11.03
2018-04-09T05:37:17.222Z,11.10
2018-04-09T05:39:44.662Z,11.03
2018-04-09T05:42:13.004Z,12.00
2018-04-09T05:44:40.450Z,14.90
2018-04-09T05:47:07.888Z,11.30
2018-04-09T05:49:35.332Z,12.87
2018-04-09T05:52:02.756Z,12.77
2018-04-09T05:54:30.193Z,12.10
2018-04-09T05:56:57.640Z,11.70
2018-04-09T05:59:25.094Z,11.73
2018-04-09T06:01:52.523Z,10.50
2018-04-09T06:04:19.957Z,10.50
2018-04-09T06:06:48.162Z,10.97
2018-04-09T06:09:15.597Z,11.07
2018-04-09T06:11:43.028Z,12.60
2018-04-09T06:14:10.461Z,11.70
2018-04-09T06:16:37.896Z,11.68
2018-04-09T06:19:05.329Z,13.47
2018-04-09T06:21:32.772Z,12.20
2018-04-09T06:24:00.967Z,12.57
2018-04-09T06:26:28.425Z,11.17
2018-04-09T06:28:56.637Z,13.47
2018-04-09T06:31:24.079Z,11.20
2018-04-09T06:33:51.537Z,11.13
2018-04-09T06:36:18.968Z,12.80
2018-04-09T06:38:46.861Z,13.17
2018-04-09T06:41:14.301Z,11.67
2018-04-09T06:43:41.739Z,13.13
2018-04-09T06:46:09.946Z,14.07
2018-04-09T06:48:37.382Z,12.20
2018-04-09T06:51:04.820Z,12.95
2018-04-09T06:53:33.029Z,11.13
2018-04-09T06:56:00.486Z,12.57
2018-04-09T06:58:27.931Z,12.80
2018-04-09T07:00:55.368Z,13.17
2018-04-09T07:03:23.567Z,11.57
2018-04-09T07:05:51.332Z,12.47
2018-04-09T07:08:18.757Z,13.80
2018-04-09T07:10:46.969Z,15.03
2018-04-09T07:13:14.437Z,13.13
2018-04-09T07:15:41.883Z,12.77
2018-04-09T07:18:09.328Z,12.63
2018-04-09T07:20:36.769Z,13.10
2018-04-09T07:23:04.224Z,12.30
2018-04-09T07:25:31.673Z,13.30
2018-04-09T07:27:59.882Z,13.83
2018-04-09T07:30:27.312Z,14.30
2018-04-09T07:32:55.525Z,15.20
2018-04-09T07:35:23.413Z,14.70
2018-04-09T07:37:50.854Z,16.50
2018-04-09T07:40:18.301Z,14.50
2018-04-09T07:42:45.741Z,13.37
2018-04-09T07:45:13.182Z,13.17
2018-04-09T07:47:41.394Z,13.73
2018-04-09T07:50:08.832Z,14.00
2018-04-09T07:52:36.287Z,14.20
2018-04-09T07:55:03.717Z,13.67
2018-04-09T07:57:31.926Z,13.90
2018-04-09T07:59:59.372Z,15.83
2018-04-09T08:02:26.813Z,14.00
2018-04-09T08:04:55.008Z,14.10
2018-04-09T08:07:23.316Z,14.00
2018-04-09T08:09:51.512Z,13.03
2018-04-09T08:12:18.963Z,12.73
2018-04-09T08:14:46.392Z,13.27
2018-04-09T08:17:13.852Z,12.80
2018-04-09T08:19:41.289Z,12.02
2018-04-09T08:22:08.725Z,12.17
2018-04-09T08:24:36.945Z,12.03
2018-04-09T08:27:04.386Z,11.63
2018-04-09T08:29:33.424Z,11.63
2018-04-09T08:32:02.365Z,11.63
2018-04-09T08:34:29.814Z,11.13
2018-04-09T08:36:57.248Z,10.93
2018-04-09T08:39:25.467Z,11.63
2018-04-09T08:41:52.904Z,10.47
2018-04-09T08:44:20.341Z,9.63
2018-04-09T08:46:48.536Z,9.13
2018-04-09T08:49:15.972Z,9.80
2018-04-09T08:51:44.373Z,9.50
2018-04-09T08:54:11.820Z,9.83
2018-04-09T08:56:40.006Z,8.80
2018-04-09T08:59:07.453Z,10.17
2018-04-09T09:01:34.893Z,8.73
2018-04-09T09:04:02.320Z,9.07
2018-04-09T09:06:29.761Z,8.93
2018-04-09T09:08:57.192Z,7.97
2018-04-09T09:11:24.622Z,8.00
2018-04-09T09:13:53.789Z,7.30
2018-04-09T09:16:21.222Z,8.10
2018-04-09T09:18:48.681Z,7.83
2018-04-09T09:21:16.176Z,8.30
2018-04-09T09:23:43.556Z,9.07
2018-04-09T09:26:11.757Z,9.20
2018-04-09T09:28:39.198Z,8.17
2018-04-09T09:31:06.630Z,8.70
2018-04-09T09:33:34.855Z,9.00
2018-04-09T09:36:02.291Z,6.60
2018-04-09T09:38:29.716Z,8.17
2018-04-09T09:40:57.158Z,8.60
2018-04-09T09:43:24.638Z,8.70
2018-04-09T09:45:52.069Z,8.50
2018-04-09T09:48:19.520Z,9.13
2018-04-09T09:50:46.965Z,8.17
2018-04-09T09:53:14.388Z,8.00
2018-04-09T09:55:41.841Z,9.57
2018-04-09T09:58:09.284Z,8.80
2018-04-09T10:00:43.209Z,8.13
2018-04-09T10:03:10.643Z,6.60
2018-04-09T10:05:38.857Z,8.33
2018-04-09T10:08:06.291Z,7.40
2018-04-09T10:10:33.733Z,7.40
2018-04-09T10:13:01.934Z,7.50
2018-04-09T10:15:29.382Z,7.80
2018-04-09T10:17:57.573Z,7.13
2018-04-09T10:20:25.020Z,7.40
2018-04-09T10:22:52.448Z,7.37
2018-04-09T10:25:20.685Z,6.63
2018-04-09T10:27:48.125Z,7.23
2018-04-09T10:30:15.797Z,6.77
2018-04-09T10:32:43.253Z,6.95
2018-04-09T10:35:10.772Z,7.50
2018-04-09T10:37:38.972Z,6.33
2018-04-09T10:40:06.407Z,7.50
2018-04-09T10:42:34.618Z,6.90
2018-04-09T10:45:02.175Z,6.30
2018-04-09T10:47:29.633Z,5.65
2018-04-09T10:49:57.052Z,5.47
2018-04-09T10:52:25.253Z,5.10
2018-04-09T10:54:52.678Z,5.10
2018-04-09T10:57:20.882Z,4.40
2018-04-09T10:59:48.316Z,4.20
2018-04-09T11:02:16.529Z,4.90
2018-04-09T11:04:43.962Z,4.43
2018-04-09T11:07:11.397Z,6.10
2018-04-09T11:09:39.610Z,5.33
2018-04-09T11:12:07.038Z,5.77
2018-04-09T11:14:34.476Z,4.63
2018-04-09T11:17:02.681Z,4.53
2018-04-09T11:19:30.106Z,4.60
2018-04-09T11:21:58.301Z,5.20
2018-04-09T11:24:25.730Z,4.53
2018-04-09T11:26:53.340Z,4.90
2018-04-09T11:29:20.771Z,4.80
2018-04-09T11:31:48.986Z,4.13
2018-04-09T11:34:16.430Z,4.60
2018-04-09T11:36:43.888Z,5.63
2018-04-09T11:39:11.439Z,4.47
2018-04-09T11:41:38.882Z,4.83
2018-04-09T11:44:07.072Z,3.30
2018-04-09T11:46:34.507Z,4.17
2018-04-09T11:49:02.709Z,3.50
2018-04-09T11:51:30.147Z,3.90
2018-04-09T11:53:58.335Z,3.77
2018-04-09T11:56:25.788Z,4.10
2018-04-09T11:58:53.221Z,3.60
2018-04-09T12:01:20.651Z,5.13
2018-04-09T12:03:48.086Z,4.70
2018-04-09T12:06:15.524Z,4.57
2018-04-09T12:08:42.959Z,4.53
2018-04-09T12:11:11.157Z,4.93
2018-04-09T12:13:38.590Z,4.93
2018-04-09T12:16:06.823Z,5.40
2018-04-09T12:18:34.267Z,5.27
2018-04-09T12:21:01.690Z,6.00
2018-04-09T12:23:29.131Z,5.70
2018-04-09T12:25:57.339Z,5.43
2018-04-09T12:28:24.776Z,6.30
2018-04-09T12:30:52.208Z,5.03
2018-04-09T12:33:20.403Z,5.13
2018-04-09T12:35:47.850Z,5.40
2018-04-09T12:38:16.047Z,5.47
2018-04-09T12:40:43.480Z,5.47
2018-04-09T12:43:11.691Z,5.90
2018-04-09T12:45:39.139Z,4.87
2018-04-09T12:48:06.587Z,6.27
2018-04-09T12:50:34.015Z,5.30
2018-04-09T12:53:02.249Z,6.40
2018-04-09T12:55:29.671Z,5.90
2018-04-09T12:57:57.107Z,5.20
2018-04-09T13:00:25.318Z,5.67
2018-04-09T13:02:52.768Z,5.20
2018-04-09T13:05:20.403Z,4.73
2018-04-09T13:07:48.608Z,5.37
2018-04-09T13:10:16.035Z,5.33
2018-04-09T13:12:44.231Z,4.60
2018-04-09T13:15:11.667Z,5.40
2018-04-09T13:17:39.854Z,5.60
2018-04-09T13:20:07.315Z,6.57
2018-04-09T13:22:34.743Z,4.93
2018-04-09T13:25:02.953Z,6.07
2018-04-09T13:27:30.395Z,5.93
2018-04-09T13:29:59.306Z,5.37
2018-04-09T13:32:26.739Z,4.17
2018-04-09T13:34:54.943Z,3.80
2018-04-09T13:37:22.366Z,3.60
2018-04-09T13:39:50.575Z,3.77
2018-04-09T13:42:18.011Z,3.00
2018-04-09T13:44:45.591Z,3.00
2018-04-09T13:47:13.063Z,2.80
2018-04-09T13:49:40.505Z,3.27
2018-04-09T13:52:09.523Z,3.30
2018-04-09T13:54:36.971Z,2.90
2018-04-09T13:57:04.404Z,3.50
2018-04-09T13:59:31.851Z,3.73
2018-04-09T14:01:59.338Z,3.00
2018-04-09T14:04:26.780Z,3.22
2018-04-09T14:06:54.230Z,2.90
2018-04-09T14:09:21.654Z,3.00
2018-04-09T14:11:49.847Z,3.53
2018-04-09T14:14:18.052Z,3.30
2018-04-09T14:16:45.483Z,3.03
2018-04-09T14:19:12.923Z,2.73
2018-04-09T14:21:41.124Z,3.23
2018-04-09T14:24:08.559Z,2.70
2018-04-09T14:26:36.767Z,2.95
2018-04-09T14:29:04.198Z,2.17
2018-04-09T14:31:32.397Z,2.50
2018-04-09T14:33:59.830Z,2.90
2018-04-09T14:36:27.644Z,3.03
2018-04-09T14:38:55.072Z,2.90
2018-04-09T14:41:22.505Z,3.57
2018-04-09T14:43:50.703Z,3.20
2018-04-09T14:46:18.141Z,3.30
2018-04-09T14:48:46.752Z,4.13
2018-04-09T14:51:14.214Z,3.17
2018-04-09T14:53:41.655Z,3.33
2018-04-09T14:56:09.091Z,3.03
2018-04-09T14:58:37.280Z,3.50
2018-04-09T15:01:04.714Z,3.13
2018-04-09T15:03:32.912Z,3.67
2018-04-09T15:06:01.095Z,3.33
2018-04-09T15:08:28.538Z,3.97
2018-04-09T15:10:55.978Z,3.90
2018-04-09T15:13:23.399Z,3.00
2018-04-09T15:15:50.836Z,3.47
2018-04-09T15:18:18.289Z,3.20
2018-04-09T15:20:45.704Z,3.40
2018-04-09T15:23:13.902Z,3.13
2018-04-09T15:25:41.331Z,3.40
2018-04-09T15:28:09.538Z,2.67
2018-04-09T15:30:36.983Z,2.70
2018-04-09T15:33:05.187Z,2.67
2018-04-09T15:35:32.626Z,2.93
2018-04-09T15:38:00.068Z,3.33
2018-04-09T15:40:28.278Z,3.40
2018-04-09T15:42:55.739Z,3.00
2018-04-09T15:45:23.167Z,2.80
2018-04-09T15:47:50.614Z,2.90
2018-04-09T15:50:18.800Z,2.77
2018-04-09T15:52:46.238Z,2.60
2018-04-09T15:55:14.449Z,2.90
2018-04-09T15:57:41.875Z,2.90
2018-04-09T16:00:10.063Z,2.67
2018-04-09T16:02:37.535Z,3.47
2018-04-09T16:05:05.194Z,3.23
2018-04-09T16:07:39.531Z,2.60
2018-04-09T16:10:06.954Z,2.80
2018-04-09T16:12:34.402Z,3.30
2018-04-09T16:15:02.607Z,3.80
2018-04-09T16:17:30.043Z,3.90
2018-04-09T16:19:57.484Z,3.50
2018-04-09T16:22:25.687Z,3.43
2018-04-09T16:24:53.123Z,3.63
2018-04-09T16:27:21.326Z,3.70
2018-04-09T16:29:48.759Z,4.30
2018-04-09T16:32:16.191Z,4.90
2018-04-09T16:34:43.635Z,3.90
2018-04-09T16:37:11.075Z,4.00
2018-04-09T16:39:38.515Z,5.10
2018-04-09T16:42:05.943Z,3.90
2018-04-09T16:44:33.387Z,3.50
2018-04-09T16:47:01.579Z,3.77
2018-04-09T16:49:29.038Z,3.47
2018-04-09T16:51:56.466Z,3.40
2018-04-09T16:54:24.676Z,3.80
2018-04-09T16:56:52.145Z,22.33
2018-04-09T16:59:19.583Z,9.20
2018-04-09T17:01:47.035Z,12.55
2018-04-09T17:04:14.474Z,3.63
2018-04-09T17:06:42.666Z,2.80
2018-04-09T17:09:10.133Z,3.40
2018-04-09T17:11:37.551Z,3.87
2018-04-09T17:14:05.003Z,3.90
2018-04-09T17:16:32.463Z,5.83
2018-04-09T17:19:00.669Z,3.53
2018-04-09T17:21:28.103Z,3.80
2018-04-09T17:23:56.427Z,4.30
2018-04-09T17:26:23.858Z,4.20
2018-04-09T17:28:52.057Z,4.53
2018-04-09T17:31:19.531Z,5.23
2018-04-09T17:33:46.959Z,5.77
2018-04-09T17:36:14.404Z,8.90
2018-04-09T17:38:42.618Z,10.63
2018-04-09T17:41:10.061Z,9.70
2018-04-09T17:43:37.498Z,9.17
2018-04-09T17:46:04.954Z,8.77
2018-04-09T17:48:33.207Z,6.50
2018-04-09T17:51:01.432Z,5.60
2018-04-09T17:53:28.858Z,7.10
2018-04-09T17:55:56.304Z,3.57
2018-04-09T17:58:24.503Z,3.33
2018-04-09T18:00:51.939Z,3.77
2018-04-09T18:03:20.127Z,3.30
2018-04-09T18:05:47.588Z,3.30
2018-04-09T18:08:15.039Z,3.20
2018-04-09T18:10:43.239Z,5.83
2018-04-09T18:13:10.679Z,6.40
2018-04-09T18:15:38.129Z,4.77
2018-04-09T18:18:05.614Z,5.10
2018-04-09T18:20:33.056Z,4.75
2018-04-09T18:23:00.487Z,4.40
2018-04-09T18:25:28.734Z,3.60
2018-04-09T18:27:56.222Z,3.47
2018-04-09T18:30:24.654Z,3.93
2018-04-09T18:32:52.090Z,3.70
2018-04-09T18:35:19.571Z,4.40
2018-04-09T18:37:47.006Z,4.70
2018-04-09T18:40:14.445Z,5.40
2018-04-09T18:42:41.907Z,6.00
2018-04-09T18:45:09.363Z,7.10
2018-04-09T18:47:37.067Z,7.13
2018-04-09T18:50:04.502Z,6.40
2018-04-09T18:52:31.941Z,7.10
2018-04-09T18:54:59.370Z,6.97
2018-04-09T18:57:27.576Z,8.57
2018-04-09T18:59:55.058Z,7.53
2018-04-09T19:02:22.523Z,7.63
2018-04-09T19:04:50.002Z,6.35
2018-04-09T19:07:17.512Z,6.93
2018-04-09T19:09:45.039Z,10.53
2018-04-09T19:12:13.423Z,9.93
2018-04-09T19:14:41.731Z,9.80
2018-04-09T19:17:09.210Z,9.00
2018-04-09T19:19:36.669Z,9.70
2018-04-09T19:22:04.878Z,9.10
2018-04-09T19:24:33.101Z,9.80
2018-04-09T19:27:00.576Z,10.90
2018-04-09T19:29:28.028Z,12.80
2018-04-09T19:31:55.474Z,13.80
2018-04-09T19:34:22.942Z,13.27
2018-04-09T19:36:55.963Z,12.10
2018-04-09T19:39:29.016Z,11.83
2018-04-09T19:41:56.476Z,13.30
2018-04-09T19:44:23.938Z,12.70
2018-04-09T19:46:51.387Z,11.53
2018-04-09T19:49:18.847Z,14.68
2018-04-09T19:51:46.323Z,12.53
2018-04-09T19:54:13.800Z,15.80
2018-04-09T19:56:41.239Z,11.50
2018-04-09T19:59:08.699Z,9.90
2018-04-09T20:01:37.641Z,9.23
2018-04-09T20:04:05.124Z,9.50
2018-04-09T20:06:32.563Z,8.63
2018-04-09T20:09:00.025Z,9.47
2018-04-09T20:11:27.468Z,8.32
2018-04-09T20:13:54.907Z,7.80
2018-04-09T20:16:23.128Z,8.00
2018-04-09T20:18:50.579Z,8.23
2018-04-09T20:21:19.346Z,8.00
2018-04-09T20:23:46.792Z,11.10
2018-04-09T20:26:14.998Z,14.13
2018-04-09T20:28:42.443Z,11.20
2018-04-09T20:31:09.879Z,11.40
2018-04-09T20:33:38.100Z,12.88
2018-04-09T20:36:05.531Z,13.43
2018-04-09T20:38:32.999Z,11.70
2018-04-09T20:41:00.453Z,11.00
2018-04-09T20:43:27.908Z,11.00
2018-04-09T20:45:55.327Z,11.30
2018-04-09T20:48:23.563Z,11.00
2018-04-09T20:50:51.007Z,10.80
2018-04-09T20:53:18.455Z,10.83
2018-04-09T20:55:45.914Z,10.93
2018-04-09T20:58:13.353Z,10.40
2018-04-09T21:00:40.778Z,11.23
2018-04-09T21:03:08.243Z,10.53
2018-04-09T21:05:36.448Z,12.17
2018-04-09T21:08:03.890Z,10.90
2018-04-09T21:10:31.335Z,9.60
2018-04-09T21:13:19.534Z,11.00
2018-04-09T21:15:46.991Z,9.93
2018-04-09T21:18:14.452Z,9.40
2018-04-09T21:20:41.903Z,10.70
2018-04-09T21:23:09.340Z,9.47
2018-04-09T21:25:36.795Z,11.60
2018-04-09T21:28:04.252Z,10.27
2018-04-09T21:30:31.708Z,10.13
2018-04-09T21:33:05.427Z,10.77
2018-04-09T21:35:32.883Z,10.70
2018-04-09T21:38:00.327Z,11.57
2018-04-09T21:40:27.786Z,11.97
2018-04-09T21:42:55.239Z,12.67
2018-04-09T21:45:23.622Z,11.57
2018-04-09T21:47:51.059Z,10.87
2018-04-09T21:50:18.506Z,10.70
2018-04-09T21:52:46.725Z,11.60
2018-04-09T21:55:14.170Z,10.77
2018-04-09T21:57:41.624Z,11.80
2018-04-09T22:00:09.087Z,10.80
2018-04-09T22:02:36.612Z,10.23
2018-04-09T22:05:04.813Z,10.43
2018-04-09T22:07:32.254Z,10.37
2018-04-09T22:09:59.719Z,10.43
2018-04-09T22:12:27.161Z,10.50
2018-04-09T22:14:55.375Z,9.77
2018-04-09T22:17:22.814Z,12.03
2018-04-09T22:19:50.246Z,11.00
2018-04-09T22:22:19.379Z,9.93
2018-04-09T22:24:46.819Z,10.37
2018-04-09T22:27:14.282Z,10.90
2018-04-09T22:29:41.721Z,10.50
2018-04-09T22:32:09.172Z,10.30
2018-04-09T22:34:37.398Z,10.40
2018-04-09T22:37:04.832Z,9.30
2018-04-09T22:39:32.270Z,9.90
2018-04-09T22:41:59.732Z,10.03
2018-04-09T22:44:27.442Z,9.47
2018-04-09T22:46:54.843Z,8.73
2018-04-09T22:49:22.279Z,9.00
2018-04-09T22:51:50.503Z,10.10
2018-04-09T22:54:17.951Z,9.33
2018-04-09T22:56:51.122Z,8.30
2018-04-09T22:59:19.320Z,10.10
2018-04-09T23:01:46.772Z,8.77
2018-04-09T23:04:14.218Z,8.47
2018-04-09T23:06:41.676Z,10.20
2018-04-09T23:09:09.883Z,9.90
2018-04-09T23:11:37.327Z,9.53
2018-04-09T23:14:04.767Z,10.17
2018-04-09T23:16:32.218Z,9.33
2018-04-09T23:18:59.652Z,9.57
2018-04-09T23:21:27.852Z,9.10
2018-04-09T23:23:55.308Z,9.40
2018-04-09T23:26:22.742Z,9.97
2018-04-09T23:28:50.198Z,10.10
2018-04-09T23:31:17.635Z,8.67
2018-04-09T23:33:45.080Z,9.47
2018-04-09T23:36:12.532Z,9.43
2018-04-09T23:38:39.963Z,9.60
2018-04-09T23:44:00.432Z,9.70
2018-04-09T23:46:27.854Z,9.70
2018-04-09T23:48:55.295Z,8.67
2018-04-09T23:51:22.738Z,8.43
2018-04-09T23:53:50.196Z,9.33
2018-04-09T23:56:17.632Z,8.67
2018-04-09T23:58:45.840Z,9.80
